sensor_id;sensor_type;location;lat;lon;timestamp;temperature;humidity
44190;DHT22;29856;52.144;5.430;2022-08-05T00:00:47;20.50;99.90
44190;DHT22;29856;52.144;5.430;2022-08-05T00:03:12;20.50;99.90
44190;DHT22;29856;52.144;5.430;2022-08-05T00:05:38;20.50;99.90
44190;DHT22;29856;52.144;5.430;2022-08-05T00:08:03;20.50;99.90
44190;DHT22;29856;52.144;5.430;2022-08-05T00:10:29;20.50;99.90
44190;DHT22;29856;52.144;5.430;2022-08-05T00:12:54;20.40;99.90
44190;DHT22;29856;52.144;5.430;2022-08-05T00:15:20;20.40;99.90
44190;DHT22;29856;52.144;5.430;2022-08-05T00:17:45;20.40;99.90
44190;DHT22;29856;52.144;5.430;2022-08-05T00:20:11;20.30;99.90
44190;DHT22;29856;52.144;5.430;2022-08-05T00:22:36;20.40;99.90
44190;DHT22;29856;52.144;5.430;2022-08-05T00:25:02;20.50;99.90
44190;DHT22;29856;52.144;5.430;2022-08-05T00:27:28;20.50;99.90
44190;DHT22;29856;52.144;5.430;2022-08-05T00:29:53;20.50;99.90
44190;DHT22;29856;52.144;5.430;2022-08-05T00:32:19;20.50;99.90
44190;DHT22;29856;52.144;5.430;2022-08-05T00:34:44;20.50;99.90
44190;DHT22;29856;52.144;5.430;2022-08-05T00:37:10;20.60;99.90
44190;DHT22;29856;52.144;5.430;2022-08-05T00:39:35;20.50;99.90
44190;DHT22;29856;52.144;5.430;2022-08-05T00:42:01;20.50;99.90
44190;DHT22;29856;52.144;5.430;2022-08-05T00:44:26;20.50;99.90
44190;DHT22;29856;52.144;5.430;2022-08-05T00:46:52;20.50;99.90
44190;DHT22;29856;52.144;5.430;2022-08-05T00:49:17;20.50;99.90
44190;DHT22;29856;52.144;5.430;2022-08-05T00:51:43;20.30;99.90
44190;DHT22;29856;52.144;5.430;2022-08-05T00:54:08;20.20;99.90
44190;DHT22;29856;52.144;5.430;2022-08-05T00:56:35;20.30;99.90
44190;DHT22;29856;52.144;5.430;2022-08-05T00:59:01;20.20;99.90
44190;DHT22;29856;52.144;5.430;2022-08-05T01:01:26;20.00;99.90
44190;DHT22;29856;52.144;5.430;2022-08-05T01:03:51;20.00;99.90
44190;DHT22;29856;52.144;5.430;2022-08-05T01:06:17;20.10;99.90
44190;DHT22;29856;52.144;5.430;2022-08-05T01:08:42;20.10;99.90
44190;DHT22;29856;52.144;5.430;2022-08-05T01:11:25;20.10;99.90
44190;DHT22;29856;52.144;5.430;2022-08-05T01:14:10;20.00;99.90
44190;DHT22;29856;52.144;5.430;2022-08-05T01:19:18;20.10;99.90
44190;DHT22;29856;52.144;5.430;2022-08-05T01:22:10;20.10;99.90
44190;DHT22;29856;52.144;5.430;2022-08-05T01:30:18;20.10;99.90
44190;DHT22;29856;52.144;5.430;2022-08-05T01:32:45;20.20;99.90
44190;DHT22;29856;52.144;5.430;2022-08-05T01:35:16;20.10;99.90
44190;DHT22;29856;52.144;5.430;2022-08-05T01:37:50;20.10;99.90
44190;DHT22;29856;52.144;5.430;2022-08-05T01:40:17;20.10;99.90
44190;DHT22;29856;52.144;5.430;2022-08-05T01:42:45;20.10;99.90
44190;DHT22;29856;52.144;5.430;2022-08-05T01:45:12;20.10;99.90
44190;DHT22;29856;52.144;5.430;2022-08-05T01:47:39;20.00;99.90
44190;DHT22;29856;52.144;5.430;2022-08-05T01:50:10;20.00;99.90
44190;DHT22;29856;52.144;5.430;2022-08-05T01:52:37;20.10;99.90
44190;DHT22;29856;52.144;5.430;2022-08-05T01:55:08;20.10;99.90
44190;DHT22;29856;52.144;5.430;2022-08-05T01:57:39;20.20;99.90
44190;DHT22;29856;52.144;5.430;2022-08-05T02:00:06;20.30;99.90
44190;DHT22;29856;52.144;5.430;2022-08-05T02:02:33;20.30;99.90
44190;DHT22;29856;52.144;5.430;2022-08-05T02:05:06;20.20;99.90
44190;DHT22;29856;52.144;5.430;2022-08-05T02:07:32;20.20;99.90
44190;DHT22;29856;52.144;5.430;2022-08-05T02:09:58;20.20;99.90
44190;DHT22;29856;52.144;5.430;2022-08-05T02:12:43;20.30;99.90
44190;DHT22;29856;52.144;5.430;2022-08-05T02:15:21;20.20;99.90
44190;DHT22;29856;52.144;5.430;2022-08-05T02:17:56;20.10;99.90
44190;DHT22;29856;52.144;5.430;2022-08-05T02:20:25;20.20;99.90
44190;DHT22;29856;52.144;5.430;2022-08-05T02:23:06;20.20;99.90
44190;DHT22;29856;52.144;5.430;2022-08-05T02:25:39;20.20;99.90
44190;DHT22;29856;52.144;5.430;2022-08-05T02:28:06;20.20;99.90
44190;DHT22;29856;52.144;5.430;2022-08-05T02:30:47;20.30;99.90
44190;DHT22;29856;52.144;5.430;2022-08-05T02:33:15;20.20;99.90
44190;DHT22;29856;52.144;5.430;2022-08-05T02:35:42;20.20;99.90
44190;DHT22;29856;52.144;5.430;2022-08-05T02:38:09;20.30;99.90
44190;DHT22;29856;52.144;5.430;2022-08-05T02:40:41;20.20;99.90
44190;DHT22;29856;52.144;5.430;2022-08-05T02:43:08;20.10;99.90
44190;DHT22;29856;52.144;5.430;2022-08-05T02:45:35;20.20;99.90
44190;DHT22;29856;52.144;5.430;2022-08-05T02:48:03;20.10;99.90
44190;DHT22;29856;52.144;5.430;2022-08-05T02:50:29;20.10;99.90
44190;DHT22;29856;52.144;5.430;2022-08-05T02:52:55;20.10;99.90
44190;DHT22;29856;52.144;5.430;2022-08-05T02:55:21;20.10;99.90
44190;DHT22;29856;52.144;5.430;2022-08-05T02:57:48;20.10;99.90
44190;DHT22;29856;52.144;5.430;2022-08-05T03:00:15;20.10;99.90
44190;DHT22;29856;52.144;5.430;2022-08-05T03:02:43;20.00;99.90
44190;DHT22;29856;52.144;5.430;2022-08-05T03:05:10;20.10;99.90
44190;DHT22;29856;52.144;5.430;2022-08-05T03:07:38;20.00;99.90
44190;DHT22;29856;52.144;5.430;2022-08-05T03:10:03;20.00;99.90
44190;DHT22;29856;52.144;5.430;2022-08-05T03:14:56;20.10;99.90
44190;DHT22;29856;52.144;5.430;2022-08-05T03:17:21;20.00;99.90
44190;DHT22;29856;52.144;5.430;2022-08-05T03:19:47;20.10;99.90
44190;DHT22;29856;52.144;5.430;2022-08-05T03:22:12;20.10;99.90
44190;DHT22;29856;52.144;5.430;2022-08-05T03:24:38;20.00;99.90
44190;DHT22;29856;52.144;5.430;2022-08-05T03:27:03;20.00;99.90
44190;DHT22;29856;52.144;5.430;2022-08-05T03:29:29;20.10;99.90
44190;DHT22;29856;52.144;5.430;2022-08-05T03:31:55;20.10;99.90
44190;DHT22;29856;52.144;5.430;2022-08-05T03:34:20;20.10;99.90
44190;DHT22;29856;52.144;5.430;2022-08-05T03:36:46;20.10;99.90
44190;DHT22;29856;52.144;5.430;2022-08-05T03:39:12;20.10;99.90
44190;DHT22;29856;52.144;5.430;2022-08-05T03:41:37;20.10;99.90
44190;DHT22;29856;52.144;5.430;2022-08-05T03:44:03;20.20;99.90
44190;DHT22;29856;52.144;5.430;2022-08-05T03:46:28;20.20;99.90
44190;DHT22;29856;52.144;5.430;2022-08-05T03:48:54;20.20;99.90
44190;DHT22;29856;52.144;5.430;2022-08-05T03:51:20;20.20;99.90
44190;DHT22;29856;52.144;5.430;2022-08-05T03:53:56;20.20;99.90
44190;DHT22;29856;52.144;5.430;2022-08-05T03:56:35;20.20;99.90
44190;DHT22;29856;52.144;5.430;2022-08-05T03:59:08;20.30;99.90
44190;DHT22;29856;52.144;5.430;2022-08-05T04:01:38;20.20;99.90
44190;DHT22;29856;52.144;5.430;2022-08-05T04:04:04;20.20;99.90
44190;DHT22;29856;52.144;5.430;2022-08-05T04:06:32;20.10;99.90
44190;DHT22;29856;52.144;5.430;2022-08-05T04:08:58;20.00;99.90
44190;DHT22;29856;52.144;5.430;2022-08-05T04:11:24;20.00;99.90
44190;DHT22;29856;52.144;5.430;2022-08-05T04:13:50;20.00;99.90
44190;DHT22;29856;52.144;5.430;2022-08-05T04:16:15;19.90;99.90
44190;DHT22;29856;52.144;5.430;2022-08-05T04:18:44;19.90;99.90
44190;DHT22;29856;52.144;5.430;2022-08-05T04:21:09;19.80;99.90
44190;DHT22;29856;52.144;5.430;2022-08-05T04:23:35;19.60;99.90
44190;DHT22;29856;52.144;5.430;2022-08-05T04:26:00;19.60;99.90
44190;DHT22;29856;52.144;5.430;2022-08-05T04:28:26;19.50;99.90
44190;DHT22;29856;52.144;5.430;2022-08-05T04:30:52;19.20;99.90
44190;DHT22;29856;52.144;5.430;2022-08-05T04:33:17;19.10;99.90
44190;DHT22;29856;52.144;5.430;2022-08-05T04:35:43;19.20;99.90
44190;DHT22;29856;52.144;5.430;2022-08-05T04:38:08;19.10;99.90
44190;DHT22;29856;52.144;5.430;2022-08-05T04:40:39;19.00;99.90
44190;DHT22;29856;52.144;5.430;2022-08-05T04:43:05;18.90;99.90
44190;DHT22;29856;52.144;5.430;2022-08-05T04:45:31;18.90;99.90
44190;DHT22;29856;52.144;5.430;2022-08-05T04:48:07;18.90;99.90
44190;DHT22;29856;52.144;5.430;2022-08-05T04:50:47;18.90;99.90
44190;DHT22;29856;52.144;5.430;2022-08-05T04:53:14;18.90;99.90
44190;DHT22;29856;52.144;5.430;2022-08-05T04:55:40;18.90;99.90
44190;DHT22;29856;52.144;5.430;2022-08-05T04:58:08;18.80;99.90
44190;DHT22;29856;52.144;5.430;2022-08-05T05:00:35;18.70;99.90
44190;DHT22;29856;52.144;5.430;2022-08-05T05:03:01;18.70;99.90
44190;DHT22;29856;52.144;5.430;2022-08-05T05:05:28;18.70;99.90
44190;DHT22;29856;52.144;5.430;2022-08-05T05:07:55;18.80;99.90
44190;DHT22;29856;52.144;5.430;2022-08-05T05:10:23;18.80;99.90
44190;DHT22;29856;52.144;5.430;2022-08-05T05:12:49;18.90;99.90
44190;DHT22;29856;52.144;5.430;2022-08-05T05:15:14;19.00;99.90
44190;DHT22;29856;52.144;5.430;2022-08-05T05:17:41;18.80;99.90
44190;DHT22;29856;52.144;5.430;2022-08-05T05:20:07;18.80;99.90
44190;DHT22;29856;52.144;5.430;2022-08-05T05:22:34;18.90;99.90
44190;DHT22;29856;52.144;5.430;2022-08-05T05:24:59;18.90;99.90
44190;DHT22;29856;52.144;5.430;2022-08-05T05:27:29;18.90;99.90
44190;DHT22;29856;52.144;5.430;2022-08-05T05:29:55;19.00;99.90
44190;DHT22;29856;52.144;5.430;2022-08-05T05:32:21;19.10;99.90
44190;DHT22;29856;52.144;5.430;2022-08-05T05:34:46;19.10;99.90
44190;DHT22;29856;52.144;5.430;2022-08-05T05:37:12;19.10;99.90
44190;DHT22;29856;52.144;5.430;2022-08-05T05:39:38;19.10;99.90
44190;DHT22;29856;52.144;5.430;2022-08-05T05:42:03;19.20;99.90
44190;DHT22;29856;52.144;5.430;2022-08-05T05:44:29;19.10;99.90
44190;DHT22;29856;52.144;5.430;2022-08-05T05:46:54;19.00;99.90
44190;DHT22;29856;52.144;5.430;2022-08-05T05:49:20;19.10;99.90
44190;DHT22;29856;52.144;5.430;2022-08-05T05:51:45;19.20;99.90
44190;DHT22;29856;52.144;5.430;2022-08-05T05:54:10;19.30;99.90
44190;DHT22;29856;52.144;5.430;2022-08-05T05:56:36;19.30;99.90
44190;DHT22;29856;52.144;5.430;2022-08-05T05:59:04;19.10;99.90
44190;DHT22;29856;52.144;5.430;2022-08-05T06:01:31;19.10;99.90
44190;DHT22;29856;52.144;5.430;2022-08-05T06:03:56;19.00;99.90
44190;DHT22;29856;52.144;5.430;2022-08-05T06:06:22;19.00;99.90
44190;DHT22;29856;52.144;5.430;2022-08-05T06:08:47;19.00;99.90
44190;DHT22;29856;52.144;5.430;2022-08-05T06:11:13;19.00;99.90
44190;DHT22;29856;52.144;5.430;2022-08-05T06:13:38;19.20;99.90
44190;DHT22;29856;52.144;5.430;2022-08-05T06:16:04;19.30;99.90
44190;DHT22;29856;52.144;5.430;2022-08-05T06:18:29;19.50;99.90
44190;DHT22;29856;52.144;5.430;2022-08-05T06:20:54;19.50;99.90
44190;DHT22;29856;52.144;5.430;2022-08-05T06:23:20;19.60;99.90
44190;DHT22;29856;52.144;5.430;2022-08-05T06:25:45;19.70;99.90
44190;DHT22;29856;52.144;5.430;2022-08-05T06:28:11;19.80;99.90
44190;DHT22;29856;52.144;5.430;2022-08-05T06:30:36;19.70;99.90
44190;DHT22;29856;52.144;5.430;2022-08-05T06:33:02;19.60;99.90
44190;DHT22;29856;52.144;5.430;2022-08-05T06:35:27;19.70;99.90
44190;DHT22;29856;52.144;5.430;2022-08-05T06:37:53;19.80;99.90
44190;DHT22;29856;52.144;5.430;2022-08-05T06:40:18;19.90;99.90
44190;DHT22;29856;52.144;5.430;2022-08-05T06:42:44;20.10;99.90
44190;DHT22;29856;52.144;5.430;2022-08-05T06:45:09;20.10;99.90
44190;DHT22;29856;52.144;5.430;2022-08-05T06:47:36;20.30;99.90
44190;DHT22;29856;52.144;5.430;2022-08-05T06:50:01;20.20;99.90
44190;DHT22;29856;52.144;5.430;2022-08-05T06:52:27;20.40;99.90
44190;DHT22;29856;52.144;5.430;2022-08-05T06:54:52;20.50;99.90
44190;DHT22;29856;52.144;5.430;2022-08-05T06:57:17;20.70;99.90
44190;DHT22;29856;52.144;5.430;2022-08-05T06:59:43;20.30;99.90
44190;DHT22;29856;52.144;5.430;2022-08-05T07:02:10;20.30;99.90
44190;DHT22;29856;52.144;5.430;2022-08-05T07:04:35;20.60;99.90
44190;DHT22;29856;52.144;5.430;2022-08-05T07:07:01;20.60;99.90
44190;DHT22;29856;52.144;5.430;2022-08-05T07:09:26;20.50;99.90
44190;DHT22;29856;52.144;5.430;2022-08-05T07:11:52;20.50;99.90
44190;DHT22;29856;52.144;5.430;2022-08-05T07:14:17;20.40;99.90
44190;DHT22;29856;52.144;5.430;2022-08-05T07:16:43;20.50;99.90
44190;DHT22;29856;52.144;5.430;2022-08-05T07:19:08;20.50;99.90
44190;DHT22;29856;52.144;5.430;2022-08-05T07:21:34;20.20;99.90
44190;DHT22;29856;52.144;5.430;2022-08-05T07:23:59;20.20;99.90
44190;DHT22;29856;52.144;5.430;2022-08-05T07:26:25;20.40;99.90
44190;DHT22;29856;52.144;5.430;2022-08-05T07:28:50;20.40;99.90
44190;DHT22;29856;52.144;5.430;2022-08-05T07:31:16;20.30;99.90
44190;DHT22;29856;52.144;5.430;2022-08-05T07:33:41;20.30;99.90
44190;DHT22;29856;52.144;5.430;2022-08-05T07:36:07;20.50;99.90
44190;DHT22;29856;52.144;5.430;2022-08-05T07:38:34;20.70;99.90
44190;DHT22;29856;52.144;5.430;2022-08-05T07:41:04;21.00;99.90
44190;DHT22;29856;52.144;5.430;2022-08-05T07:43:31;21.30;99.90
44190;DHT22;29856;52.144;5.430;2022-08-05T07:45:56;21.20;99.90
44190;DHT22;29856;52.144;5.430;2022-08-05T07:48:21;20.80;99.90
44190;DHT22;29856;52.144;5.430;2022-08-05T07:50:47;20.90;99.90
44190;DHT22;29856;52.144;5.430;2022-08-05T07:53:12;21.00;99.90
44190;DHT22;29856;52.144;5.430;2022-08-05T07:55:38;21.10;99.90
44190;DHT22;29856;52.144;5.430;2022-08-05T07:58:03;21.10;99.90
44190;DHT22;29856;52.144;5.430;2022-08-05T08:00:29;21.20;99.90
44190;DHT22;29856;52.144;5.430;2022-08-05T08:02:54;21.40;99.90
44190;DHT22;29856;52.144;5.430;2022-08-05T08:05:20;21.40;99.90
44190;DHT22;29856;52.144;5.430;2022-08-05T08:07:45;21.70;99.90
44190;DHT22;29856;52.144;5.430;2022-08-05T08:10:11;21.20;99.90
44190;DHT22;29856;52.144;5.430;2022-08-05T08:12:36;21.20;99.90
44190;DHT22;29856;52.144;5.430;2022-08-05T08:15:02;21.20;99.90
44190;DHT22;29856;52.144;5.430;2022-08-05T08:17:28;21.40;99.90
44190;DHT22;29856;52.144;5.430;2022-08-05T08:19:53;21.20;99.90
44190;DHT22;29856;52.144;5.430;2022-08-05T08:22:24;21.00;99.90
44190;DHT22;29856;52.144;5.430;2022-08-05T08:24:50;21.40;99.90
44190;DHT22;29856;52.144;5.430;2022-08-05T08:27:15;21.30;99.90
44190;DHT22;29856;52.144;5.430;2022-08-05T08:29:41;21.50;99.90
44190;DHT22;29856;52.144;5.430;2022-08-05T08:32:06;21.30;99.90
44190;DHT22;29856;52.144;5.430;2022-08-05T08:34:32;21.30;99.90
44190;DHT22;29856;52.144;5.430;2022-08-05T08:36:57;21.70;99.90
44190;DHT22;29856;52.144;5.430;2022-08-05T08:39:23;21.40;99.90
44190;DHT22;29856;52.144;5.430;2022-08-05T08:41:49;21.30;99.90
44190;DHT22;29856;52.144;5.430;2022-08-05T08:44:18;21.50;99.90
44190;DHT22;29856;52.144;5.430;2022-08-05T08:46:44;21.60;99.90
44190;DHT22;29856;52.144;5.430;2022-08-05T08:49:15;21.60;99.90
44190;DHT22;29856;52.144;5.430;2022-08-05T08:51:42;21.50;99.90
44190;DHT22;29856;52.144;5.430;2022-08-05T08:54:11;21.30;99.90
44190;DHT22;29856;52.144;5.430;2022-08-05T08:56:39;21.40;99.90
44190;DHT22;29856;52.144;5.430;2022-08-05T08:59:05;21.70;99.90
44190;DHT22;29856;52.144;5.430;2022-08-05T09:01:31;21.60;99.90
44190;DHT22;29856;52.144;5.430;2022-08-05T09:03:57;21.50;99.90
44190;DHT22;29856;52.144;5.430;2022-08-05T09:06:27;21.60;99.90
44190;DHT22;29856;52.144;5.430;2022-08-05T09:08:53;21.80;99.90
44190;DHT22;29856;52.144;5.430;2022-08-05T09:11:20;22.30;99.90
44190;DHT22;29856;52.144;5.430;2022-08-05T09:13:45;22.20;99.90
44190;DHT22;29856;52.144;5.430;2022-08-05T09:16:14;21.90;99.90
44190;DHT22;29856;52.144;5.430;2022-08-05T09:18:40;22.50;99.90
44190;DHT22;29856;52.144;5.430;2022-08-05T09:21:05;21.80;99.90
44190;DHT22;29856;52.144;5.430;2022-08-05T09:23:31;21.80;99.90
44190;DHT22;29856;52.144;5.430;2022-08-05T09:26:13;22.40;99.90
44190;DHT22;29856;52.144;5.430;2022-08-05T09:28:40;22.60;99.90
44190;DHT22;29856;52.144;5.430;2022-08-05T09:31:10;22.50;99.90
44190;DHT22;29856;52.144;5.430;2022-08-05T09:34:06;22.30;99.90
44190;DHT22;29856;52.144;5.430;2022-08-05T09:36:45;22.60;99.90
44190;DHT22;29856;52.144;5.430;2022-08-05T09:39:12;22.30;99.90
44190;DHT22;29856;52.144;5.430;2022-08-05T09:42:02;21.90;99.50
44190;DHT22;29856;52.144;5.430;2022-08-05T09:44:37;21.90;98.40
44190;DHT22;29856;52.144;5.430;2022-08-05T09:47:21;22.20;98.90
44190;DHT22;29856;52.144;5.430;2022-08-05T09:49:55;22.40;98.80
44190;DHT22;29856;52.144;5.430;2022-08-05T09:55:05;22.30;99.60
44190;DHT22;29856;52.144;5.430;2022-08-05T09:57:37;22.40;98.50
44190;DHT22;29856;52.144;5.430;2022-08-05T10:00:09;21.70;98.50
44190;DHT22;29856;52.144;5.430;2022-08-05T10:02:38;21.80;99.60
44190;DHT22;29856;52.144;5.430;2022-08-05T10:05:30;21.70;98.70
44190;DHT22;29856;52.144;5.430;2022-08-05T10:08:03;21.70;98.00
44190;DHT22;29856;52.144;5.430;2022-08-05T10:10:37;21.60;96.40
44190;DHT22;29856;52.144;5.430;2022-08-05T10:13:03;21.70;95.70
44190;DHT22;29856;52.144;5.430;2022-08-05T10:15:38;21.60;96.10
44190;DHT22;29856;52.144;5.430;2022-08-05T10:18:10;21.90;96.50
44190;DHT22;29856;52.144;5.430;2022-08-05T10:23:11;21.90;97.20
44190;DHT22;29856;52.144;5.430;2022-08-05T10:25:37;21.70;98.00
44190;DHT22;29856;52.144;5.430;2022-08-05T10:28:03;22.30;97.70
44190;DHT22;29856;52.144;5.430;2022-08-05T10:30:29;22.60;96.80
44190;DHT22;29856;52.144;5.430;2022-08-05T10:32:56;22.80;96.50
44190;DHT22;29856;52.144;5.430;2022-08-05T10:35:22;23.00;96.80
44190;DHT22;29856;52.144;5.430;2022-08-05T10:37:47;23.30;97.10
44190;DHT22;29856;52.144;5.430;2022-08-05T10:43:14;22.80;94.00
44190;DHT22;29856;52.144;5.430;2022-08-05T10:45:41;22.90;93.50
44190;DHT22;29856;52.144;5.430;2022-08-05T10:48:33;22.70;94.00
44190;DHT22;29856;52.144;5.430;2022-08-05T10:51:05;22.60;92.50
44190;DHT22;29856;52.144;5.430;2022-08-05T10:53:33;22.80;93.00
44190;DHT22;29856;52.144;5.430;2022-08-05T10:56:04;22.80;93.50
44190;DHT22;29856;52.144;5.430;2022-08-05T10:58:30;22.80;92.80
44190;DHT22;29856;52.144;5.430;2022-08-05T11:00:55;23.10;92.40
44190;DHT22;29856;52.144;5.430;2022-08-05T11:03:21;22.70;92.40
44190;DHT22;29856;52.144;5.430;2022-08-05T11:06:10;23.00;92.50
44190;DHT22;29856;52.144;5.430;2022-08-05T11:08:36;23.00;92.50
44190;DHT22;29856;52.144;5.430;2022-08-05T11:11:31;22.80;92.80
44190;DHT22;29856;52.144;5.430;2022-08-05T11:13:57;23.00;92.80
44190;DHT22;29856;52.144;5.430;2022-08-05T11:16:23;22.80;91.90
44190;DHT22;29856;52.144;5.430;2022-08-05T11:27:51;22.50;93.10
44190;DHT22;29856;52.144;5.430;2022-08-05T11:30:17;22.30;93.90
44190;DHT22;29856;52.144;5.430;2022-08-05T11:32:42;22.90;93.10
44190;DHT22;29856;52.144;5.430;2022-08-05T11:36:14;22.70;92.20
44190;DHT22;29856;52.144;5.430;2022-08-05T11:38:14;22.30;93.00
44190;DHT22;29856;52.144;5.430;2022-08-05T11:43:20;22.20;93.80
44190;DHT22;29856;52.144;5.430;2022-08-05T11:45:49;21.90;94.80
44190;DHT22;29856;52.144;5.430;2022-08-05T11:48:14;22.10;94.90
44190;DHT22;29856;52.144;5.430;2022-08-05T11:50:40;22.40;94.20
44190;DHT22;29856;52.144;5.430;2022-08-05T11:53:06;22.80;93.70
44190;DHT22;29856;52.144;5.430;2022-08-05T11:55:31;22.90;92.10
44190;DHT22;29856;52.144;5.430;2022-08-05T11:57:57;22.20;93.20
44190;DHT22;29856;52.144;5.430;2022-08-05T12:00:30;22.20;93.10
44190;DHT22;29856;52.144;5.430;2022-08-05T12:03:12;22.40;94.50
44190;DHT22;29856;52.144;5.430;2022-08-05T12:05:38;22.70;94.00
44190;DHT22;29856;52.144;5.430;2022-08-05T12:08:04;22.80;94.90
44190;DHT22;29856;52.144;5.430;2022-08-05T12:10:31;22.80;95.10
44190;DHT22;29856;52.144;5.430;2022-08-05T12:13:03;22.40;95.50
44190;DHT22;29856;52.144;5.430;2022-08-05T12:15:28;22.40;96.00
44190;DHT22;29856;52.144;5.430;2022-08-05T12:17:54;22.50;95.50
44190;DHT22;29856;52.144;5.430;2022-08-05T12:20:26;22.60;95.30
44190;DHT22;29856;52.144;5.430;2022-08-05T12:23:06;22.60;95.60
44190;DHT22;29856;52.144;5.430;2022-08-05T12:25:32;22.60;95.90
44190;DHT22;29856;52.144;5.430;2022-08-05T12:28:12;22.60;95.90
44190;DHT22;29856;52.144;5.430;2022-08-05T12:30:37;21.70;96.90
44190;DHT22;29856;52.144;5.430;2022-08-05T12:33:03;22.00;97.40
44190;DHT22;29856;52.144;5.430;2022-08-05T12:35:29;21.60;97.30
44190;DHT22;29856;52.144;5.430;2022-08-05T12:37:54;21.90;98.00
44190;DHT22;29856;52.144;5.430;2022-08-05T12:40:20;21.70;99.00
44190;DHT22;29856;52.144;5.430;2022-08-05T12:42:45;22.10;99.20
44190;DHT22;29856;52.144;5.430;2022-08-05T12:45:11;22.00;99.50
44190;DHT22;29856;52.144;5.430;2022-08-05T12:47:37;21.60;99.90
44190;DHT22;29856;52.144;5.430;2022-08-05T12:50:13;22.20;99.90
44190;DHT22;29856;52.144;5.430;2022-08-05T12:52:39;21.60;99.90
44190;DHT22;29856;52.144;5.430;2022-08-05T12:55:28;22.00;99.90
44190;DHT22;29856;52.144;5.430;2022-08-05T12:57:56;22.00;99.40
44190;DHT22;29856;52.144;5.430;2022-08-05T13:00:23;22.00;99.70
44190;DHT22;29856;52.144;5.430;2022-08-05T13:02:49;21.80;99.90
44190;DHT22;29856;52.144;5.430;2022-08-05T13:05:16;21.90;99.80
44190;DHT22;29856;52.144;5.430;2022-08-05T13:07:42;21.80;99.90
44190;DHT22;29856;52.144;5.430;2022-08-05T13:10:11;22.20;99.90
44190;DHT22;29856;52.144;5.430;2022-08-05T13:12:41;22.50;99.90
44190;DHT22;29856;52.144;5.430;2022-08-05T13:15:10;22.30;99.90
44190;DHT22;29856;52.144;5.430;2022-08-05T13:17:36;21.80;99.90
44190;DHT22;29856;52.144;5.430;2022-08-05T13:22:39;22.10;99.90
44190;DHT22;29856;52.144;5.430;2022-08-05T13:25:09;21.70;99.90
44190;DHT22;29856;52.144;5.430;2022-08-05T13:27:39;22.20;99.90
44190;DHT22;29856;52.144;5.430;2022-08-05T13:30:07;22.50;99.90
44190;DHT22;29856;52.144;5.430;2022-08-05T13:32:33;22.40;99.00
44190;DHT22;29856;52.144;5.430;2022-08-05T13:34:58;22.70;99.10
44190;DHT22;29856;52.144;5.430;2022-08-05T13:37:24;22.80;99.30
44190;DHT22;29856;52.144;5.430;2022-08-05T13:39:50;22.40;97.80
44190;DHT22;29856;52.144;5.430;2022-08-05T13:42:16;22.60;98.50
44190;DHT22;29856;52.144;5.430;2022-08-05T13:44:42;22.50;99.00
44190;DHT22;29856;52.144;5.430;2022-08-05T13:47:07;22.60;99.10
44190;DHT22;29856;52.144;5.430;2022-08-05T13:49:33;22.50;98.70
44190;DHT22;29856;52.144;5.430;2022-08-05T13:52:12;22.40;99.40
44190;DHT22;29856;52.144;5.430;2022-08-05T13:54:38;22.50;98.90
44190;DHT22;29856;52.144;5.430;2022-08-05T13:57:04;22.00;98.30
44190;DHT22;29856;52.144;5.430;2022-08-05T13:59:29;22.00;99.00
44190;DHT22;29856;52.144;5.430;2022-08-05T14:01:56;22.30;98.50
44190;DHT22;29856;52.144;5.430;2022-08-05T14:04:22;22.60;98.90
44190;DHT22;29856;52.144;5.430;2022-08-05T14:06:48;22.80;98.90
44190;DHT22;29856;52.144;5.430;2022-08-05T14:09:14;22.40;98.20
44190;DHT22;29856;52.144;5.430;2022-08-05T14:11:40;22.60;98.50
44190;DHT22;29856;52.144;5.430;2022-08-05T14:14:06;23.30;97.70
44190;DHT22;29856;52.144;5.430;2022-08-05T14:16:32;22.90;97.70
44190;DHT22;29856;52.144;5.430;2022-08-05T14:18:58;22.70;97.70
44190;DHT22;29856;52.144;5.430;2022-08-05T14:21:23;22.60;97.30
44190;DHT22;29856;52.144;5.430;2022-08-05T14:23:49;22.40;97.20
44190;DHT22;29856;52.144;5.430;2022-08-05T14:26:14;22.50;97.50
44190;DHT22;29856;52.144;5.430;2022-08-05T14:28:40;22.10;97.90
44190;DHT22;29856;52.144;5.430;2022-08-05T14:31:05;22.10;97.40
44190;DHT22;29856;52.144;5.430;2022-08-05T14:33:31;21.90;97.80
44190;DHT22;29856;52.144;5.430;2022-08-05T14:35:56;21.80;97.60
44190;DHT22;29856;52.144;5.430;2022-08-05T14:38:22;22.00;97.70
44190;DHT22;29856;52.144;5.430;2022-08-05T14:40:50;21.60;97.70
44190;DHT22;29856;52.144;5.430;2022-08-05T14:43:16;22.00;97.50
44190;DHT22;29856;52.144;5.430;2022-08-05T14:45:41;22.20;97.40
44190;DHT22;29856;52.144;5.430;2022-08-05T14:48:07;21.90;97.70
44190;DHT22;29856;52.144;5.430;2022-08-05T14:50:32;21.90;98.10
44190;DHT22;29856;52.144;5.430;2022-08-05T14:52:58;21.60;97.90
44190;DHT22;29856;52.144;5.430;2022-08-05T14:55:23;21.60;98.70
44190;DHT22;29856;52.144;5.430;2022-08-05T14:57:49;21.20;99.80
44190;DHT22;29856;52.144;5.430;2022-08-05T15:00:14;21.10;99.90
44190;DHT22;29856;52.144;5.430;2022-08-05T15:02:40;21.30;99.90
44190;DHT22;29856;52.144;5.430;2022-08-05T15:05:06;21.40;99.90
44190;DHT22;29856;52.144;5.430;2022-08-05T15:07:31;21.60;99.90
44190;DHT22;29856;52.144;5.430;2022-08-05T15:09:57;21.40;99.90
44190;DHT22;29856;52.144;5.430;2022-08-05T15:12:22;21.30;99.90
44190;DHT22;29856;52.144;5.430;2022-08-05T15:14:48;21.10;99.90
44190;DHT22;29856;52.144;5.430;2022-08-05T15:17:13;21.30;99.90
44190;DHT22;29856;52.144;5.430;2022-08-05T15:19:38;21.00;99.90
44190;DHT22;29856;52.144;5.430;2022-08-05T15:22:04;20.70;99.90
44190;DHT22;29856;52.144;5.430;2022-08-05T15:24:29;20.60;99.90
44190;DHT22;29856;52.144;5.430;2022-08-05T15:26:55;20.70;99.90
44190;DHT22;29856;52.144;5.430;2022-08-05T15:29:20;20.80;99.90
44190;DHT22;29856;52.144;5.430;2022-08-05T15:31:46;20.60;99.90
44190;DHT22;29856;52.144;5.430;2022-08-05T15:34:11;20.50;99.90
44190;DHT22;29856;52.144;5.430;2022-08-05T15:36:37;20.70;99.90
44190;DHT22;29856;52.144;5.430;2022-08-05T15:39:02;20.90;99.90
44190;DHT22;29856;52.144;5.430;2022-08-05T15:41:28;20.70;99.90
44190;DHT22;29856;52.144;5.430;2022-08-05T15:43:54;20.80;99.90
44190;DHT22;29856;52.144;5.430;2022-08-05T15:46:19;20.30;99.90
44190;DHT22;29856;52.144;5.430;2022-08-05T15:48:45;20.80;99.90
44190;DHT22;29856;52.144;5.430;2022-08-05T15:51:11;20.80;99.90
44190;DHT22;29856;52.144;5.430;2022-08-05T15:53:36;20.70;99.90
44190;DHT22;29856;52.144;5.430;2022-08-05T15:56:02;20.70;99.90
44190;DHT22;29856;52.144;5.430;2022-08-05T15:58:28;20.80;99.90
44190;DHT22;29856;52.144;5.430;2022-08-05T16:00:53;20.90;99.90
44190;DHT22;29856;52.144;5.430;2022-08-05T16:03:19;20.80;99.90
44190;DHT22;29856;52.144;5.430;2022-08-05T16:05:45;20.90;99.90